CYS weather

Public forecast

Using degrees Fahrenheit for public forecast. Weather courtesy of forecast.io.

Current aviation weather report (METAR) for Cheyenne Regional Jerry Olson Field

Retrieved 2020/08/09 15:53 UTC (45 minutes ago):

KCYS 091553Z 32006KT 10SM CLR 29/M02 A3018 RMK AO2 SLP115 T02941022

Aviation forecast (TAF) for Cheyenne Regional Jerry Olson Field

Retrieved 2020/08/09 12:42 UTC (4 hours ago):

TAF KCYS 091141Z 0912/1012 28011KT P6SM SKC FM091700 30010G18KT P6SM SKC FM092100 33012G18KT P6SM FEW150 FM100300 06007KT P6SM FEW250 FM100900 34008KT P6SM SCT250